الصفحة الرئيسية
METAR-TAF:

METAR-TAF

مطار :

Kangiqsujuaq, كيبك, كندا

دائرة عرض: 61-35N, خط طول: 071-56W, ارتفاع: 151 متر

مراقبة الطقس الحالي

تاريخ ووقت الإصدار 23 دقيقة قبل الساعة 16:42UTC
ريح 15 عقدة من الشمال
درجة الحرارة 1°درجة مئوية
الرطوبة 86%
ضغط 999 hPa
الرؤية: 11.3 كم
ملبد بالغيوم على ارتفاع 1500 قدم
ثلوج خفيفة

METAR: CYKG 151642Z 36015KT 7SM -SN OVC015 01/M01 A2950 RMK SC8 WIND EST SLP003

زمن: 13:05 (17:05 UTC)

توقعات

تاريخ ووقت الإصدار 1ساعة و 0 دقيقة قبل الساعة 16:05UTC
التوقعات صالحة من15 الساعة 16 UTC إلى 15 الساعة 21 UTC
ريح 15 عقدة من الغرب/الشمال الغربي تتزايد حتى 25 عقدة
الرؤية: 9.7 كم
ملبد بالغيوم على ارتفاع 2500 قدم
مطر خفيف, غشاء
مؤقت
من 15 الساعة 16 UTC إلى 15 الساعة 21 UTC
الرؤية: 4.8 كم
غيوم متفرقة على ارتفاع 600 قدم
ملبد بالغيوم على ارتفاع 1200 قدم
مطر خفيف, غشاء
أصبح
من 15 الساعة 16 UTC إلى 15 الساعة 18 UTC
ريح 25 عقدة من الغرب/الشمال الغربي تتزايد حتى 35 عقدة

TAF: CYKG 151605Z 1516/1521 30015G25KT 6SM -RA BR OVC025 TEMPO 1516/1521 3SM -RA BR SCT006 OVC012 BECMG 1516/1518 30025G35KT RMK NXT FCST BY 161400Z

أرصاد الطقس والتوقعات من أكثر من 4000 مطار (تقارير الطقس للمطار METAR والتنبؤ بالطقس بالمطارTAF).

المحطات المتاحة هي النقط الصفراء والحمراء على الخريطة.

حرك المؤشر فوق النقطة لمعرفة اسم المحطة.

ثم انقر لمعرفة أرصاد وتوقعات الطقس.

لتغيير الخارطة: اضغط على الأزرار الخضراء مع رمز الصليب الأسود للتكبير. على الزر الأخضر مع شرطة للتصغير، أو على الأسهم الخضراء للخرائط المجاورة.


METAR-TAF: